Hlavní strana
METAR-TAF:

METAR-TAF

Letiště :

Kuej-lin, Čína

zeměpisná šířka: 25-20N, zeměpisná délka: 110-18E, výška: 166 m

Aktuální stav počasí

Zpráva byla vytvořena před 21 minutami, v 07:00 UTC
vítr z různých směrů 4 kt
Teplota 16°C
Vlhkost vzduchu 59%
Tlak 1016 hPa
Viditelnost: 3000 m
Oblačno až skoro zataženo ve výšce 6600 ft
zákal

METAR: ZGKL 200700Z VRB02MPS 3000 HZ BKN066 16/08 Q1016 NOSIG

Čas: 15:21 (07:21 UTC)

Předpověď počasí

Zpráva byla vytvořena před 4 hodinami a 10 minutami, v 03:11 UTC
Předpověď platná od 20 v 06 UTC do 21 v 06 UTC
Severovýchodní vítr 4 kt
Viditelnost: 3000 m
Zataženo ve výšce 5000 ft
kouřmo

TAF: ZGKL 200311Z 2006/2106 05002MPS 3000 BR OVC050 TX17/2007Z TN10/2022Z

Stav a předpovědi počasí z více než 4 000 letišť (zprávy METAR a TAF).

Červené a žluté tečky na mapě představují dostupné meteorologické stanice.

Když kurzor umístíte na tečku, zobrazí se název stanice.

Pak kliknutím zobrazíte stav a předpověď počasí.

Chcete-li změnit mapu, kliknutím na zelené tlačítko se znaménkem +mapu přiblížíte, kliknutím na zelené tlačítko se znaménkem – mapu oddálíte a kliknutím na zelené šipky přejdete na sousední mapy.


METAR-TAF: